createdAt,value
2023-05-08T00:00:36.079Z,16.00
2023-05-08T00:03:03.591Z,16.01
2023-05-08T00:05:30.713Z,15.93
2023-05-08T00:08:01.459Z,15.94
2023-05-08T00:10:29.054Z,15.89
2023-05-08T00:12:56.515Z,15.97
2023-05-08T00:15:23.052Z,15.99
2023-05-08T00:17:49.723Z,15.93
2023-05-08T00:20:16.537Z,15.85
2023-05-08T00:22:43.155Z,15.82
2023-05-08T00:25:10.119Z,15.87
2023-05-08T00:27:36.689Z,15.94
2023-05-08T00:30:08.038Z,15.79
2023-05-08T00:32:34.620Z,15.72
2023-05-08T00:35:01.190Z,15.63
2023-05-08T00:37:27.696Z,15.61
2023-05-08T00:39:54.300Z,15.59
2023-05-08T00:42:20.847Z,15.58
2023-05-08T00:44:47.948Z,15.56
2023-05-08T00:47:14.491Z,15.49
2023-05-08T00:49:41.281Z,15.49
2023-05-08T00:52:08.758Z,15.43
2023-05-08T00:54:38.735Z,15.48
2023-05-08T00:57:08.630Z,15.39
2023-05-08T00:59:37.281Z,15.34
2023-05-08T01:02:04.106Z,15.39
2023-05-08T01:04:31.804Z,15.31
2023-05-08T01:06:58.481Z,15.27
2023-05-08T01:09:25.014Z,15.24
2023-05-08T01:12:25.737Z,15.25
2023-05-08T01:14:55.082Z,15.21
2023-05-08T01:17:39.241Z,15.24
2023-05-08T01:20:11.869Z,15.25
2023-05-08T01:22:53.324Z,15.24
2023-05-08T01:25:44.303Z,15.28
2023-05-08T01:28:16.547Z,15.32
2023-05-08T01:31:11.962Z,15.31
2023-05-08T01:33:50.445Z,15.31
2023-05-08T01:36:31.300Z,15.32
2023-05-08T01:39:10.080Z,15.25
2023-05-08T01:41:38.578Z,15.28
2023-05-08T01:44:15.629Z,15.28
2023-05-08T01:46:45.763Z,15.43
2023-05-08T01:49:30.128Z,15.28
2023-05-08T01:52:05.927Z,15.48
2023-05-08T01:54:49.009Z,15.34
2023-05-08T01:57:18.394Z,15.35
2023-05-08T01:59:47.470Z,15.42
2023-05-08T02:02:15.272Z,15.56
2023-05-08T02:04:44.782Z,15.49
2023-05-08T02:07:11.470Z,15.35
2023-05-08T02:09:39.863Z,15.28
2023-05-08T02:12:17.522Z,15.24
2023-05-08T02:14:47.134Z,15.24
2023-05-08T02:17:16.701Z,15.22
2023-05-08T02:19:45.907Z,15.32
2023-05-08T02:22:16.669Z,15.35
2023-05-08T02:24:45.516Z,15.30
2023-05-08T02:27:13.210Z,15.34
2023-05-08T02:29:40.326Z,15.21
2023-05-08T02:32:09.022Z,15.28
2023-05-08T02:34:37.143Z,15.42
2023-05-08T02:37:06.113Z,15.36
2023-05-08T02:39:35.785Z,15.34
2023-05-08T02:42:03.993Z,15.30
2023-05-08T02:44:30.712Z,15.25
2023-05-08T02:47:12.306Z,15.24
2023-05-08T02:49:49.147Z,15.34
2023-05-08T02:52:33.240Z,15.22
2023-05-08T02:55:11.664Z,15.20
2023-05-08T02:57:50.194Z,15.17
2023-05-08T03:00:24.620Z,15.11
2023-05-08T03:02:57.642Z,15.14
2023-05-08T03:05:30.648Z,15.11
2023-05-08T03:08:10.976Z,15.25
2023-05-08T03:10:40.441Z,15.17
2023-05-08T03:13:09.393Z,15.18
2023-05-08T03:15:44.607Z,15.35
2023-05-08T03:18:21.209Z,15.28
2023-05-08T03:20:52.740Z,15.24
2023-05-08T03:23:21.705Z,15.11
2023-05-08T03:25:48.206Z,15.01
2023-05-08T03:28:15.992Z,15.03
2023-05-08T03:30:43.870Z,14.97
2023-05-08T03:33:12.258Z,14.94
2023-05-08T03:35:39.672Z,14.83
2023-05-08T03:38:08.263Z,14.83
2023-05-08T03:40:39.111Z,14.84
2023-05-08T03:43:07.671Z,14.84
2023-05-08T03:45:39.334Z,14.81
2023-05-08T03:48:07.314Z,14.79
2023-05-08T03:50:38.211Z,14.80
2023-05-08T03:53:05.242Z,14.70
2023-05-08T03:55:32.468Z,14.69
2023-05-08T03:58:13.539Z,14.67
2023-05-08T04:01:01.948Z,14.66
2023-05-08T04:03:50.171Z,14.59
2023-05-08T04:06:35.605Z,14.59
2023-05-08T04:09:18.680Z,14.51
2023-05-08T04:12:03.477Z,14.52
2023-05-08T04:14:36.690Z,14.48
2023-05-08T04:17:08.392Z,14.51
2023-05-08T04:19:39.979Z,14.48
2023-05-08T04:22:08.479Z,14.46
2023-05-08T04:24:39.970Z,14.52
2023-05-08T04:27:09.262Z,14.59
2023-05-08T04:29:36.661Z,14.57
2023-05-08T04:32:05.779Z,14.52
2023-05-08T04:34:32.669Z,14.55
2023-05-08T04:36:59.249Z,14.56
2023-05-08T04:39:25.758Z,14.51
2023-05-08T04:41:55.019Z,14.52
2023-05-08T04:44:21.629Z,14.56
2023-05-08T04:46:50.217Z,14.56
2023-05-08T04:49:16.757Z,14.55
2023-05-08T04:51:43.348Z,14.51
2023-05-08T04:54:09.846Z,14.56
2023-05-08T04:56:36.661Z,14.56
2023-05-08T04:59:03.193Z,14.51
2023-05-08T05:01:30.327Z,14.51
2023-05-08T05:03:56.916Z,14.48
2023-05-08T05:06:23.622Z,14.46
2023-05-08T05:08:50.318Z,14.40
2023-05-08T05:11:16.893Z,14.43
2023-05-08T05:13:43.414Z,14.36
2023-05-08T05:16:10.121Z,14.33
2023-05-08T05:18:36.633Z,14.35
2023-05-08T05:21:03.650Z,14.35
2023-05-08T05:23:30.203Z,14.39
2023-05-08T05:25:57.040Z,14.40
2023-05-08T05:28:23.731Z,14.48
2023-05-08T05:30:50.558Z,14.57
2023-05-08T05:33:17.651Z,14.53
2023-05-08T05:35:44.386Z,14.49
2023-05-08T05:38:10.857Z,14.63
2023-05-08T05:40:37.465Z,14.52
2023-05-08T05:43:04.097Z,14.70
2023-05-08T05:45:33.207Z,14.84
2023-05-08T05:48:00.316Z,15.04
2023-05-08T05:50:27.298Z,15.00
2023-05-08T05:52:55.119Z,14.90
2023-05-08T05:55:22.226Z,14.90
2023-05-08T05:57:49.085Z,15.01
2023-05-08T06:00:16.807Z,15.18
2023-05-08T06:02:44.053Z,15.27
2023-05-08T06:05:11.370Z,15.17
2023-05-08T06:07:38.369Z,15.30
2023-05-08T06:10:05.503Z,15.25
2023-05-08T06:12:32.142Z,15.35
2023-05-08T06:14:58.690Z,15.11
2023-05-08T06:17:25.262Z,15.24
2023-05-08T06:19:55.745Z,15.07
2023-05-08T06:22:23.333Z,14.88
2023-05-08T06:24:53.371Z,14.84
2023-05-08T06:27:21.038Z,14.91
2023-05-08T06:32:36.512Z,14.90
2023-05-08T06:35:03.885Z,14.91
2023-05-08T06:37:30.748Z,14.85
2023-05-08T06:40:10.165Z,14.90
2023-05-08T06:42:38.089Z,14.90
2023-05-08T06:45:05.280Z,14.94
2023-05-08T06:47:32.017Z,14.94
2023-05-08T06:49:58.764Z,14.97
2023-05-08T06:52:25.726Z,15.04
2023-05-08T06:54:52.649Z,14.94
2023-05-08T06:57:19.209Z,15.11
2023-05-08T06:59:45.861Z,15.34
2023-05-08T07:02:12.532Z,15.38
2023-05-08T07:04:39.232Z,15.41
2023-05-08T07:07:06.796Z,15.21
2023-05-08T07:09:33.490Z,15.34
2023-05-08T07:12:00.134Z,15.22
2023-05-08T07:14:27.501Z,15.17
2023-05-08T07:16:54.423Z,15.17
2023-05-08T07:19:22.571Z,15.10
2023-05-08T07:21:49.427Z,15.15
2023-05-08T07:24:16.012Z,15.27
2023-05-08T07:26:42.850Z,15.61
2023-05-08T07:29:09.394Z,15.76
2023-05-08T07:31:40.477Z,15.74
2023-05-08T07:34:07.356Z,15.85
2023-05-08T07:36:34.038Z,16.04
2023-05-08T07:39:00.618Z,15.93
2023-05-08T07:41:27.243Z,16.40
2023-05-08T07:43:53.810Z,16.11
2023-05-08T07:46:20.743Z,15.86
2023-05-08T07:48:47.409Z,16.54
2023-05-08T07:51:14.699Z,16.58
2023-05-08T07:53:41.350Z,16.38
2023-05-08T07:56:08.081Z,16.38
2023-05-08T07:58:35.125Z,16.44
2023-05-08T08:01:02.155Z,16.78
2023-05-08T08:03:29.097Z,16.47
2023-05-08T08:05:55.772Z,16.78
2023-05-08T08:08:22.449Z,17.30
2023-05-08T08:10:50.094Z,17.07
2023-05-08T08:13:17.611Z,16.83
2023-05-08T08:15:44.441Z,16.42
2023-05-08T08:18:11.006Z,16.67
2023-05-08T08:20:37.645Z,17.11
2023-05-08T08:23:04.255Z,17.10
2023-05-08T08:25:31.053Z,16.72
2023-05-08T08:27:58.502Z,16.24
2023-05-08T08:30:25.157Z,16.85
2023-05-08T08:32:51.922Z,17.34
2023-05-08T08:35:18.827Z,17.07
2023-05-08T08:37:45.765Z,16.96
2023-05-08T08:40:12.491Z,17.53
2023-05-08T08:42:39.220Z,17.61
2023-05-08T08:45:07.008Z,17.53
2023-05-08T08:47:37.847Z,17.36
2023-05-08T08:50:05.359Z,17.61
2023-05-08T08:52:42.113Z,17.62
2023-05-08T08:55:15.242Z,17.83
2023-05-08T08:58:00.457Z,17.78
2023-05-08T09:00:32.033Z,17.71
2023-05-08T09:02:59.210Z,17.75
2023-05-08T09:05:29.081Z,17.99
2023-05-08T09:07:57.452Z,17.86
2023-05-08T09:10:25.154Z,18.47
2023-05-08T09:12:52.017Z,17.85
2023-05-08T09:15:18.691Z,18.32
2023-05-08T09:17:45.403Z,18.73
2023-05-08T09:20:14.881Z,18.15
2023-05-08T09:22:51.250Z,17.94
2023-05-08T09:25:19.010Z,17.75
2023-05-08T09:27:45.617Z,17.54
2023-05-08T09:30:16.845Z,17.89
2023-05-08T09:32:45.574Z,17.59
2023-05-08T09:35:13.289Z,17.74
2023-05-08T09:37:43.770Z,17.46
2023-05-08T09:40:21.641Z,17.72
2023-05-08T09:42:50.306Z,17.41
2023-05-08T09:45:27.770Z,17.67
2023-05-08T09:47:54.576Z,17.59
2023-05-08T09:50:21.302Z,18.02
2023-05-08T09:52:49.243Z,18.02
2023-05-08T09:55:15.747Z,18.47
2023-05-08T09:57:52.912Z,18.63
2023-05-08T10:00:20.415Z,17.86
2023-05-08T10:03:04.146Z,18.06
2023-05-08T10:05:34.221Z,17.74
2023-05-08T10:08:21.872Z,17.51
2023-05-08T10:10:48.899Z,17.88
2023-05-08T10:13:15.631Z,17.61
2023-05-08T10:15:43.819Z,17.85
2023-05-08T10:18:12.304Z,18.27
2023-05-08T10:20:41.898Z,18.30
2023-05-08T10:23:14.507Z,18.20
2023-05-08T10:25:46.490Z,18.19
2023-05-08T10:28:29.152Z,18.48
2023-05-08T10:31:03.720Z,17.83
2023-05-08T10:33:32.677Z,18.10
2023-05-08T10:36:00.484Z,17.85
2023-05-08T10:38:27.452Z,17.71
2023-05-08T10:40:58.053Z,18.47
2023-05-08T10:43:25.740Z,18.15
2023-05-08T10:45:55.579Z,17.75
2023-05-08T10:49:00.093Z,17.67
2023-05-08T10:51:46.934Z,17.78
2023-05-08T10:54:21.844Z,17.92
2023-05-08T10:56:48.882Z,17.69
2023-05-08T10:59:19.847Z,17.99
2023-05-08T11:01:50.086Z,18.25
2023-05-08T11:04:21.971Z,18.63
2023-05-08T11:06:52.999Z,18.83
2023-05-08T11:09:22.136Z,18.94
2023-05-08T11:12:09.181Z,18.60
2023-05-08T11:14:39.510Z,18.99
2023-05-08T11:17:06.847Z,18.67
2023-05-08T11:19:34.003Z,18.13
2023-05-08T11:22:19.188Z,17.81
2023-05-08T11:24:57.352Z,17.58
2023-05-08T11:27:37.847Z,17.83
2023-05-08T11:30:26.408Z,17.62
2023-05-08T11:32:57.398Z,17.33
2023-05-08T11:35:51.681Z,17.34
2023-05-08T11:38:26.111Z,17.30
2023-05-08T11:40:55.754Z,17.38
2023-05-08T11:43:36.254Z,17.31
2023-05-08T11:46:36.171Z,17.09
2023-05-08T11:49:02.850Z,17.11
2023-05-08T11:51:33.805Z,17.41
2023-05-08T11:54:01.153Z,17.23
2023-05-08T11:56:27.866Z,17.37
2023-05-08T11:59:13.330Z,17.57
2023-05-08T12:01:40.067Z,17.34
2023-05-08T12:04:12.503Z,17.40
2023-05-08T12:06:41.316Z,17.33
2023-05-08T12:09:16.215Z,17.17
2023-05-08T12:11:45.483Z,16.93
2023-05-08T12:14:13.948Z,17.14
2023-05-08T12:16:41.159Z,17.34
2023-05-08T12:19:12.389Z,17.82
2023-05-08T12:21:39.900Z,18.40
2023-05-08T12:24:08.971Z,18.41
2023-05-08T12:26:37.438Z,17.96
2023-05-08T12:29:08.601Z,18.23
2023-05-08T12:31:38.476Z,18.40
2023-05-08T12:34:06.071Z,18.06
2023-05-08T12:36:36.663Z,17.55
2023-05-08T12:39:16.826Z,17.88
2023-05-08T12:41:52.901Z,17.99
2023-05-08T12:44:26.534Z,17.65
2023-05-08T12:46:55.517Z,17.23
2023-05-08T12:49:30.907Z,17.46
2023-05-08T12:52:02.145Z,17.17
2023-05-08T12:54:39.426Z,17.48
2023-05-08T12:57:11.627Z,17.68
2023-05-08T12:59:38.338Z,17.43
2023-05-08T13:02:05.374Z,17.53
2023-05-08T13:04:37.423Z,17.24
2023-05-08T13:07:04.035Z,17.36
2023-05-08T13:09:30.668Z,17.48
2023-05-08T13:11:57.262Z,17.61
2023-05-08T13:14:24.008Z,17.40
2023-05-08T13:16:51.905Z,17.57
2023-05-08T13:19:19.088Z,17.79
2023-05-08T13:21:47.656Z,17.64
2023-05-08T13:24:15.219Z,17.74
2023-05-08T13:26:46.218Z,17.61
2023-05-08T13:29:12.810Z,17.65
2023-05-08T13:31:39.325Z,17.75
2023-05-08T13:34:06.006Z,17.81
2023-05-08T13:36:32.524Z,18.01
2023-05-08T13:38:59.180Z,17.83
2023-05-08T13:41:25.671Z,17.85
2023-05-08T13:43:52.132Z,17.85
2023-05-08T13:46:18.784Z,18.06
2023-05-08T13:48:45.393Z,18.17
2023-05-08T13:51:12.330Z,18.33
2023-05-08T13:53:39.191Z,18.32
2023-05-08T13:56:06.421Z,18.09
2023-05-08T13:58:33.028Z,18.27
2023-05-08T14:01:07.547Z,18.44
2023-05-08T14:03:41.184Z,18.70
2023-05-08T14:06:08.034Z,18.68
2023-05-08T14:08:35.186Z,18.83
2023-05-08T14:11:04.147Z,18.78
2023-05-08T14:13:32.236Z,18.56
2023-05-08T14:15:58.954Z,18.54
2023-05-08T14:18:25.476Z,18.26
2023-05-08T14:20:57.245Z,18.37
2023-05-08T14:23:24.194Z,18.68
2023-05-08T14:25:50.756Z,19.34
2023-05-08T14:28:17.334Z,19.62
2023-05-08T14:30:43.926Z,19.43
2023-05-08T14:33:10.671Z,19.28
2023-05-08T14:35:37.314Z,19.73
2023-05-08T14:38:04.536Z,19.69
2023-05-08T14:40:31.063Z,19.47
2023-05-08T14:42:58.003Z,19.08
2023-05-08T14:45:24.728Z,19.64
2023-05-08T14:47:51.551Z,20.38
2023-05-08T14:50:18.334Z,20.52
2023-05-08T14:52:44.943Z,20.97
2023-05-08T14:55:12.479Z,21.54
2023-05-08T14:57:39.176Z,21.89
2023-05-08T15:00:06.926Z,20.44
2023-05-08T15:02:33.520Z,20.41
2023-05-08T15:05:00.160Z,20.46
2023-05-08T15:07:26.710Z,19.93
2023-05-08T15:09:53.377Z,19.66
2023-05-08T15:12:20.032Z,19.95
2023-05-08T15:14:46.592Z,20.90
2023-05-08T15:17:13.280Z,21.67
2023-05-08T15:19:39.840Z,22.51
2023-05-08T15:22:06.437Z,21.11
2023-05-08T15:24:32.955Z,21.09
2023-05-08T15:26:59.904Z,22.10
2023-05-08T15:29:29.357Z,22.40
2023-05-08T15:31:56.290Z,22.23
2023-05-08T15:34:24.570Z,21.32
2023-05-08T15:36:53.371Z,21.47
2023-05-08T15:39:19.943Z,22.33
2023-05-08T15:41:46.508Z,22.63
2023-05-08T15:44:14.213Z,22.84
2023-05-08T15:46:40.842Z,22.33
2023-05-08T15:49:07.421Z,22.20
2023-05-08T15:51:34.361Z,21.40
2023-05-08T15:54:00.887Z,21.40
2023-05-08T15:56:27.584Z,20.55
2023-05-08T15:58:57.134Z,20.73
2023-05-08T16:01:23.739Z,20.77
2023-05-08T16:03:50.295Z,20.96
2023-05-08T16:06:16.833Z,20.28
2023-05-08T16:08:44.002Z,20.53
2023-05-08T16:11:10.821Z,20.08
2023-05-08T16:13:37.601Z,20.03
2023-05-08T16:16:06.098Z,20.29
2023-05-08T16:18:33.011Z,19.95
2023-05-08T16:20:59.644Z,20.00
2023-05-08T16:23:26.425Z,19.85
2023-05-08T16:25:52.918Z,19.93
2023-05-08T16:28:19.550Z,19.85
2023-05-08T16:30:46.085Z,20.13
2023-05-08T16:33:12.751Z,19.98
2023-05-08T16:35:40.325Z,20.26
2023-05-08T16:38:06.998Z,20.59
2023-05-08T16:40:33.630Z,20.62
2023-05-08T16:43:00.358Z,20.52
2023-05-08T16:45:27.457Z,20.29
2023-05-08T16:47:54.021Z,20.20
2023-05-08T16:50:20.813Z,20.15
2023-05-08T16:52:47.479Z,20.22
2023-05-08T16:55:16.964Z,20.44
2023-05-08T16:57:43.524Z,20.22
2023-05-08T17:00:11.085Z,20.41
2023-05-08T17:02:38.959Z,20.36
2023-05-08T17:05:05.997Z,20.10
2023-05-08T17:07:32.868Z,20.11
2023-05-08T17:09:59.458Z,19.93
2023-05-08T17:12:26.129Z,20.01
2023-05-08T17:14:52.821Z,19.93
2023-05-08T17:17:19.437Z,19.98
2023-05-08T17:19:46.076Z,19.78
2023-05-08T17:22:13.318Z,19.83
2023-05-08T17:24:40.265Z,19.90
2023-05-08T17:27:07.702Z,19.70
2023-05-08T17:29:35.426Z,19.57
2023-05-08T17:32:02.271Z,19.47
2023-05-08T17:34:28.955Z,19.42
2023-05-08T17:36:55.694Z,19.41
2023-05-08T17:39:22.794Z,19.38
2023-05-08T17:41:50.286Z,19.28
2023-05-08T17:44:17.533Z,19.29
2023-05-08T17:46:44.726Z,19.22
2023-05-08T17:49:11.304Z,19.18
2023-05-08T17:51:37.937Z,19.09
2023-05-08T17:57:36.073Z,19.02
2023-05-08T18:00:04.513Z,18.94
2023-05-08T18:02:31.214Z,18.97
2023-05-08T18:04:57.798Z,19.02
2023-05-08T18:07:24.285Z,18.94
2023-05-08T18:09:53.998Z,18.88
2023-05-08T18:12:20.631Z,18.83
2023-05-08T18:14:48.051Z,18.77
2023-05-08T18:17:19.304Z,18.74
2023-05-08T18:19:46.471Z,18.71
2023-05-08T18:22:13.247Z,18.67
2023-05-08T18:24:40.741Z,18.58
2023-05-08T18:27:07.555Z,18.58
2023-05-08T18:29:34.200Z,18.51
2023-05-08T18:32:00.808Z,18.44
2023-05-08T18:34:27.437Z,18.36
2023-05-08T18:36:55.473Z,18.33
2023-05-08T18:39:22.678Z,18.29
2023-05-08T18:41:49.417Z,18.19
2023-05-08T18:44:17.023Z,18.16
2023-05-08T18:46:43.615Z,18.08
2023-05-08T18:49:10.331Z,18.06
2023-05-08T18:51:36.955Z,18.05
2023-05-08T18:54:03.895Z,17.98
2023-05-08T18:56:30.770Z,17.98
2023-05-08T18:58:57.241Z,17.86
2023-05-08T19:01:24.109Z,17.85
2023-05-08T19:03:50.946Z,17.78
2023-05-08T19:06:17.530Z,17.67
2023-05-08T19:08:44.593Z,17.71
2023-05-08T19:11:11.414Z,17.62
2023-05-08T19:13:38.025Z,17.62
2023-05-08T19:16:05.176Z,17.57
2023-05-08T19:18:32.109Z,17.51
2023-05-08T19:20:58.716Z,17.54
2023-05-08T19:23:25.263Z,17.40
2023-05-08T19:25:52.792Z,17.38
2023-05-08T19:28:19.540Z,17.38
2023-05-08T19:30:46.176Z,17.44
2023-05-08T19:33:12.822Z,17.44
2023-05-08T19:35:39.470Z,17.46
2023-05-08T19:38:06.453Z,17.41
2023-05-08T19:40:34.623Z,17.34
2023-05-08T19:43:08.432Z,17.40
2023-05-08T19:45:35.272Z,17.36
2023-05-08T19:48:02.309Z,17.27
2023-05-08T19:50:29.859Z,17.19
2023-05-08T19:52:56.520Z,17.16
2023-05-08T19:55:23.170Z,17.11
2023-05-08T19:57:49.758Z,17.06
2023-05-08T20:00:16.570Z,17.02
2023-05-08T20:02:43.191Z,17.06
2023-05-08T20:07:39.361Z,16.95
2023-05-08T20:10:06.623Z,16.95
2023-05-08T20:12:33.137Z,16.98
2023-05-08T20:14:59.635Z,16.90
2023-05-08T20:17:26.219Z,16.86
2023-05-08T20:19:52.776Z,16.80
2023-05-08T20:22:19.301Z,16.75
2023-05-08T20:24:45.879Z,16.67
2023-05-08T20:27:12.510Z,16.65
2023-05-08T20:29:39.191Z,16.61
2023-05-08T20:32:07.269Z,16.62
2023-05-08T20:34:34.471Z,16.61
2023-05-08T20:37:01.162Z,16.57
2023-05-08T20:39:27.646Z,16.54
2023-05-08T20:41:54.269Z,16.51
2023-05-08T20:44:20.875Z,16.49
2023-05-08T20:46:47.429Z,16.49
2023-05-08T20:49:14.067Z,16.45
2023-05-08T20:51:40.699Z,16.41
2023-05-08T20:54:07.224Z,16.34
2023-05-08T20:56:35.819Z,16.34
2023-05-08T20:59:02.690Z,16.27
2023-05-08T21:01:29.367Z,16.30
2023-05-08T21:03:56.035Z,16.31
2023-05-08T21:06:22.586Z,16.25
2023-05-08T21:08:50.028Z,16.31
2023-05-08T21:11:17.087Z,16.25
2023-05-08T21:13:44.391Z,16.21
2023-05-08T21:16:11.690Z,16.20
2023-05-08T21:18:38.267Z,16.18
2023-05-08T21:21:13.866Z,16.14
2023-05-08T21:23:40.454Z,16.13
2023-05-08T21:26:07.047Z,16.13
2023-05-08T21:28:34.306Z,16.06
2023-05-08T21:31:01.044Z,16.03
2023-05-08T21:33:27.687Z,16.00
2023-05-08T21:35:54.186Z,15.99
2023-05-08T21:38:20.922Z,15.94
2023-05-08T21:40:53.930Z,16.00
2023-05-08T21:43:20.451Z,15.94
2023-05-08T21:45:47.416Z,15.93
2023-05-08T21:48:13.865Z,15.90
2023-05-08T21:50:40.876Z,15.85
2023-05-08T21:53:07.579Z,15.86
2023-05-08T21:55:34.241Z,15.77
2023-05-08T21:58:00.783Z,15.76
2023-05-08T22:00:27.345Z,15.76
2023-05-08T22:02:54.359Z,15.69
2023-05-08T22:05:22.404Z,15.67
2023-05-08T22:07:49.050Z,15.65
2023-05-08T22:10:16.084Z,15.66
2023-05-08T22:12:42.725Z,15.65
2023-05-08T22:15:21.676Z,15.62
2023-05-08T22:17:58.584Z,15.58
2023-05-08T22:20:25.802Z,15.59
2023-05-08T22:22:52.437Z,15.59
2023-05-08T22:25:19.451Z,15.56
2023-05-08T22:27:46.097Z,15.49
2023-05-08T22:30:12.908Z,15.49
2023-05-08T22:32:39.637Z,15.49
2023-05-08T22:35:06.846Z,15.48
2023-05-08T22:37:33.382Z,15.51
2023-05-08T22:39:59.929Z,15.52
2023-05-08T22:42:26.973Z,15.43
2023-05-08T22:44:53.667Z,15.46
2023-05-08T22:47:20.534Z,15.42
2023-05-08T22:49:48.040Z,15.39
2023-05-08T22:52:14.616Z,15.39
2023-05-08T22:54:41.082Z,15.36
2023-05-08T22:57:08.785Z,15.35
2023-05-08T22:59:36.425Z,15.36
2023-05-08T23:02:02.962Z,15.36
2023-05-08T23:04:29.518Z,15.32
2023-05-08T23:06:56.042Z,15.32
2023-05-08T23:09:23.018Z,15.32
2023-05-08T23:11:50.075Z,15.35
2023-05-08T23:14:16.649Z,15.32
2023-05-08T23:16:43.252Z,15.28
2023-05-08T23:19:10.089Z,15.30
2023-05-08T23:21:36.737Z,15.28
2023-05-08T23:24:04.621Z,15.28
2023-05-08T23:26:31.071Z,15.31
2023-05-08T23:28:57.593Z,15.28
2023-05-08T23:31:24.088Z,15.24
2023-05-08T23:33:50.740Z,15.31
2023-05-08T23:36:18.110Z,15.30
2023-05-08T23:38:44.672Z,15.32
2023-05-08T23:41:11.440Z,15.32
2023-05-08T23:43:38.020Z,15.35
2023-05-08T23:46:04.568Z,15.42
2023-05-08T23:48:31.372Z,15.31
2023-05-08T23:50:57.938Z,15.32
2023-05-08T23:53:24.513Z,15.31
2023-05-08T23:55:52.288Z,15.34
